sensor_id;sensor_type;location;lat;lon;timestamp;temperature;humidity
36654;DHT22;22650;49.350;20.898;2023-04-01T00:01:56;8.00;99.90
36654;DHT22;22650;49.350;20.898;2023-04-01T00:04:30;8.00;99.90
36654;DHT22;22650;49.350;20.898;2023-04-01T00:07:04;7.90;99.90
36654;DHT22;22650;49.350;20.898;2023-04-01T00:09:38;7.90;99.90
36654;DHT22;22650;49.350;20.898;2023-04-01T00:12:12;7.90;99.90
36654;DHT22;22650;49.350;20.898;2023-04-01T00:14:45;7.90;99.90
36654;DHT22;22650;49.350;20.898;2023-04-01T00:17:20;7.90;99.90
36654;DHT22;22650;49.350;20.898;2023-04-01T00:19:55;7.80;99.90
36654;DHT22;22650;49.350;20.898;2023-04-01T00:22:28;7.90;99.90
36654;DHT22;22650;49.350;20.898;2023-04-01T00:25:02;7.80;99.90
36654;DHT22;22650;49.350;20.898;2023-04-01T00:27:36;7.80;99.90
36654;DHT22;22650;49.350;20.898;2023-04-01T00:30:10;7.80;99.90
36654;DHT22;22650;49.350;20.898;2023-04-01T00:32:45;7.80;99.90
36654;DHT22;22650;49.350;20.898;2023-04-01T00:35:19;7.70;99.90
36654;DHT22;22650;49.350;20.898;2023-04-01T00:37:52;7.60;99.90
36654;DHT22;22650;49.350;20.898;2023-04-01T00:40:29;7.60;99.90
36654;DHT22;22650;49.350;20.898;2023-04-01T00:43:03;7.60;99.90
36654;DHT22;22650;49.350;20.898;2023-04-01T00:45:38;7.50;99.90
36654;DHT22;22650;49.350;20.898;2023-04-01T00:48:16;7.50;99.90
36654;DHT22;22650;49.350;20.898;2023-04-01T00:50:53;7.50;99.90
36654;DHT22;22650;49.350;20.898;2023-04-01T00:53:28;7.50;99.90
36654;DHT22;22650;49.350;20.898;2023-04-01T00:56:07;7.40;99.90
36654;DHT22;22650;49.350;20.898;2023-04-01T00:58:46;7.40;99.90
36654;DHT22;22650;49.350;20.898;2023-04-01T01:01:22;7.50;99.90
36654;DHT22;22650;49.350;20.898;2023-04-01T01:03:59;7.50;99.90
36654;DHT22;22650;49.350;20.898;2023-04-01T01:06:42;7.40;99.90
36654;DHT22;22650;49.350;20.898;2023-04-01T01:09:20;7.50;99.90
36654;DHT22;22650;49.350;20.898;2023-04-01T01:12:04;7.50;99.90
36654;DHT22;22650;49.350;20.898;2023-04-01T01:14:52;7.50;99.90
36654;DHT22;22650;49.350;20.898;2023-04-01T01:17:35;7.40;99.90
36654;DHT22;22650;49.350;20.898;2023-04-01T01:20:32;7.50;99.90
36654;DHT22;22650;49.350;20.898;2023-04-01T01:26:40;7.50;99.90
36654;DHT22;22650;49.350;20.898;2023-04-01T01:29:39;7.50;99.90
36654;DHT22;22650;49.350;20.898;2023-04-01T01:32:25;7.50;99.90
36654;DHT22;22650;49.350;20.898;2023-04-01T01:35:14;7.50;99.90
36654;DHT22;22650;49.350;20.898;2023-04-01T01:37:53;7.50;99.90
36654;DHT22;22650;49.350;20.898;2023-04-01T01:40:29;7.50;99.90
36654;DHT22;22650;49.350;20.898;2023-04-01T01:43:06;7.50;99.90
36654;DHT22;22650;49.350;20.898;2023-04-01T01:45:44;7.50;99.90
36654;DHT22;22650;49.350;20.898;2023-04-01T01:48:20;7.50;99.90
36654;DHT22;22650;49.350;20.898;2023-04-01T01:50:55;7.40;99.90
36654;DHT22;22650;49.350;20.898;2023-04-01T01:53:29;7.40;99.90
36654;DHT22;22650;49.350;20.898;2023-04-01T01:56:04;7.40;99.90
36654;DHT22;22650;49.350;20.898;2023-04-01T01:58:43;7.40;99.90
36654;DHT22;22650;49.350;20.898;2023-04-01T02:01:23;7.40;99.90
36654;DHT22;22650;49.350;20.898;2023-04-01T02:03:59;7.30;99.90
36654;DHT22;22650;49.350;20.898;2023-04-01T02:06:38;7.30;99.90
36654;DHT22;22650;49.350;20.898;2023-04-01T02:09:12;7.30;99.90
36654;DHT22;22650;49.350;20.898;2023-04-01T02:11:49;7.20;99.90
36654;DHT22;22650;49.350;20.898;2023-04-01T02:14:26;7.20;99.90
36654;DHT22;22650;49.350;20.898;2023-04-01T02:17:05;7.10;99.90
36654;DHT22;22650;49.350;20.898;2023-04-01T02:19:40;7.10;99.90
36654;DHT22;22650;49.350;20.898;2023-04-01T02:22:20;7.10;99.90
36654;DHT22;22650;49.350;20.898;2023-04-01T02:24:58;7.10;99.90
36654;DHT22;22650;49.350;20.898;2023-04-01T02:27:32;7.10;99.90
36654;DHT22;22650;49.350;20.898;2023-04-01T02:30:07;7.00;99.90
36654;DHT22;22650;49.350;20.898;2023-04-01T02:32:41;7.00;99.90
36654;DHT22;22650;49.350;20.898;2023-04-01T02:35:16;7.00;99.90
36654;DHT22;22650;49.350;20.898;2023-04-01T02:37:53;6.90;99.90
36654;DHT22;22650;49.350;20.898;2023-04-01T02:40:27;6.90;99.90
36654;DHT22;22650;49.350;20.898;2023-04-01T02:43:00;6.80;99.90
36654;DHT22;22650;49.350;20.898;2023-04-01T02:45:34;6.80;99.90
36654;DHT22;22650;49.350;20.898;2023-04-01T02:48:07;6.70;99.90
36654;DHT22;22650;49.350;20.898;2023-04-01T02:50:41;6.70;99.90
36654;DHT22;22650;49.350;20.898;2023-04-01T02:53:16;6.60;99.90
36654;DHT22;22650;49.350;20.898;2023-04-01T02:55:50;6.60;99.90
36654;DHT22;22650;49.350;20.898;2023-04-01T02:58:24;6.50;99.90
36654;DHT22;22650;49.350;20.898;2023-04-01T03:00:57;6.40;99.90
36654;DHT22;22650;49.350;20.898;2023-04-01T03:03:31;6.40;99.90
36654;DHT22;22650;49.350;20.898;2023-04-01T03:06:05;6.30;99.90
36654;DHT22;22650;49.350;20.898;2023-04-01T03:08:40;6.20;99.90
36654;DHT22;22650;49.350;20.898;2023-04-01T03:11:14;6.20;99.90
36654;DHT22;22650;49.350;20.898;2023-04-01T03:13:48;6.10;99.90
36654;DHT22;22650;49.350;20.898;2023-04-01T03:16:22;6.10;99.90
36654;DHT22;22650;49.350;20.898;2023-04-01T03:18:55;6.00;99.90
36654;DHT22;22650;49.350;20.898;2023-04-01T03:21:32;5.90;99.90
36654;DHT22;22650;49.350;20.898;2023-04-01T03:24:07;5.80;99.90
36654;DHT22;22650;49.350;20.898;2023-04-01T03:26:41;5.70;99.90
36654;DHT22;22650;49.350;20.898;2023-04-01T03:29:14;5.70;99.90
36654;DHT22;22650;49.350;20.898;2023-04-01T03:31:48;5.80;99.90
36654;DHT22;22650;49.350;20.898;2023-04-01T03:34:22;5.70;99.90
36654;DHT22;22650;49.350;20.898;2023-04-01T03:36:55;5.70;99.90
36654;DHT22;22650;49.350;20.898;2023-04-01T03:39:30;5.70;99.90
36654;DHT22;22650;49.350;20.898;2023-04-01T03:42:04;5.70;99.90
36654;DHT22;22650;49.350;20.898;2023-04-01T03:44:38;5.70;99.90
36654;DHT22;22650;49.350;20.898;2023-04-01T03:47:14;5.70;99.90
36654;DHT22;22650;49.350;20.898;2023-04-01T03:49:48;5.70;99.90
36654;DHT22;22650;49.350;20.898;2023-04-01T03:52:21;5.70;99.90
36654;DHT22;22650;49.350;20.898;2023-04-01T03:54:56;5.70;99.90
36654;DHT22;22650;49.350;20.898;2023-04-01T03:57:31;5.70;99.90
36654;DHT22;22650;49.350;20.898;2023-04-01T04:00:13;5.70;99.90
36654;DHT22;22650;49.350;20.898;2023-04-01T04:02:49;5.70;99.90
36654;DHT22;22650;49.350;20.898;2023-04-01T04:05:28;5.80;99.90
36654;DHT22;22650;49.350;20.898;2023-04-01T04:08:03;5.80;99.90
36654;DHT22;22650;49.350;20.898;2023-04-01T04:10:39;5.80;99.90
36654;DHT22;22650;49.350;20.898;2023-04-01T04:13:13;5.80;99.90
36654;DHT22;22650;49.350;20.898;2023-04-01T04:15:54;5.80;99.90
36654;DHT22;22650;49.350;20.898;2023-04-01T04:18:27;5.80;99.90
36654;DHT22;22650;49.350;20.898;2023-04-01T04:21:01;5.80;99.90
36654;DHT22;22650;49.350;20.898;2023-04-01T04:23:35;5.80;99.90
36654;DHT22;22650;49.350;20.898;2023-04-01T04:26:12;5.80;99.90
36654;DHT22;22650;49.350;20.898;2023-04-01T04:28:47;5.80;99.90
36654;DHT22;22650;49.350;20.898;2023-04-01T04:31:23;5.80;99.90
36654;DHT22;22650;49.350;20.898;2023-04-01T04:34:00;5.80;99.90
36654;DHT22;22650;49.350;20.898;2023-04-01T04:36:38;5.80;99.90
36654;DHT22;22650;49.350;20.898;2023-04-01T04:39:11;5.80;99.90
36654;DHT22;22650;49.350;20.898;2023-04-01T04:41:48;5.80;99.90
36654;DHT22;22650;49.350;20.898;2023-04-01T04:44:21;5.80;99.90
36654;DHT22;22650;49.350;20.898;2023-04-01T04:46:55;5.80;99.90
36654;DHT22;22650;49.350;20.898;2023-04-01T04:49:29;5.80;99.90
36654;DHT22;22650;49.350;20.898;2023-04-01T04:52:06;5.80;99.90
36654;DHT22;22650;49.350;20.898;2023-04-01T04:54:40;5.90;99.90
36654;DHT22;22650;49.350;20.898;2023-04-01T04:57:14;5.90;99.90
36654;DHT22;22650;49.350;20.898;2023-04-01T04:59:55;5.90;99.90
36654;DHT22;22650;49.350;20.898;2023-04-01T05:02:42;6.00;99.90
36654;DHT22;22650;49.350;20.898;2023-04-01T05:05:16;6.00;99.90
36654;DHT22;22650;49.350;20.898;2023-04-01T05:07:50;6.00;99.90
36654;DHT22;22650;49.350;20.898;2023-04-01T05:10:24;6.00;99.90
36654;DHT22;22650;49.350;20.898;2023-04-01T05:12:59;6.10;99.90
36654;DHT22;22650;49.350;20.898;2023-04-01T05:15:33;6.10;99.90
36654;DHT22;22650;49.350;20.898;2023-04-01T05:18:07;6.10;99.90
36654;DHT22;22650;49.350;20.898;2023-04-01T05:20:46;6.10;99.90
36654;DHT22;22650;49.350;20.898;2023-04-01T05:23:22;6.20;99.90
36654;DHT22;22650;49.350;20.898;2023-04-01T05:25:55;6.20;99.90
36654;DHT22;22650;49.350;20.898;2023-04-01T05:28:30;6.20;99.90
36654;DHT22;22650;49.350;20.898;2023-04-01T05:31:04;6.30;99.90
36654;DHT22;22650;49.350;20.898;2023-04-01T05:33:42;6.30;99.90
36654;DHT22;22650;49.350;20.898;2023-04-01T05:36:16;6.40;99.90
36654;DHT22;22650;49.350;20.898;2023-04-01T05:38:50;6.50;99.90
36654;DHT22;22650;49.350;20.898;2023-04-01T05:41:24;6.50;99.90
36654;DHT22;22650;49.350;20.898;2023-04-01T05:43:59;6.60;99.90
36654;DHT22;22650;49.350;20.898;2023-04-01T05:46:44;6.70;99.90
36654;DHT22;22650;49.350;20.898;2023-04-01T05:49:30;6.80;99.90
36654;DHT22;22650;49.350;20.898;2023-04-01T05:52:04;6.90;99.90
36654;DHT22;22650;49.350;20.898;2023-04-01T05:54:40;6.90;99.90
36654;DHT22;22650;49.350;20.898;2023-04-01T05:57:13;7.00;99.90
36654;DHT22;22650;49.350;20.898;2023-04-01T05:59:49;7.10;99.90
36654;DHT22;22650;49.350;20.898;2023-04-01T06:02:22;7.20;99.90
36654;DHT22;22650;49.350;20.898;2023-04-01T06:05:03;7.30;99.90
36654;DHT22;22650;49.350;20.898;2023-04-01T06:07:44;7.40;99.90
36654;DHT22;22650;49.350;20.898;2023-04-01T06:10:20;7.50;99.90
36654;DHT22;22650;49.350;20.898;2023-04-01T06:13:00;7.50;99.90
36654;DHT22;22650;49.350;20.898;2023-04-01T06:15:40;7.60;99.90
36654;DHT22;22650;49.350;20.898;2023-04-01T06:18:42;7.60;99.90
36654;DHT22;22650;49.350;20.898;2023-04-01T06:21:48;7.70;99.90
36654;DHT22;22650;49.350;20.898;2023-04-01T06:24:37;7.70;99.90
36654;DHT22;22650;49.350;20.898;2023-04-01T06:27:22;7.80;99.90
36654;DHT22;22650;49.350;20.898;2023-04-01T06:30:04;7.80;99.90
36654;DHT22;22650;49.350;20.898;2023-04-01T06:33:00;7.80;99.90
36654;DHT22;22650;49.350;20.898;2023-04-01T06:39:02;7.90;99.90
36654;DHT22;22650;49.350;20.898;2023-04-01T06:45:22;8.00;99.90
36654;DHT22;22650;49.350;20.898;2023-04-01T06:48:39;8.10;99.90
36654;DHT22;22650;49.350;20.898;2023-04-01T06:51:45;8.30;99.90
36654;DHT22;22650;49.350;20.898;2023-04-01T06:54:44;8.40;99.90
36654;DHT22;22650;49.350;20.898;2023-04-01T06:57:41;8.40;99.90
36654;DHT22;22650;49.350;20.898;2023-04-01T07:00:21;8.60;99.90
36654;DHT22;22650;49.350;20.898;2023-04-01T07:03:04;8.70;99.90
36654;DHT22;22650;49.350;20.898;2023-04-01T07:05:41;8.80;99.90
36654;DHT22;22650;49.350;20.898;2023-04-01T07:08:20;9.00;99.90
36654;DHT22;22650;49.350;20.898;2023-04-01T07:10:58;9.20;99.90
36654;DHT22;22650;49.350;20.898;2023-04-01T07:13:54;9.50;99.90
36654;DHT22;22650;49.350;20.898;2023-04-01T07:16:31;9.80;99.90
36654;DHT22;22650;49.350;20.898;2023-04-01T07:19:09;10.20;99.90
36654;DHT22;22650;49.350;20.898;2023-04-01T07:22:14;10.50;99.90
36654;DHT22;22650;49.350;20.898;2023-04-01T07:25:24;10.80;99.90
36654;DHT22;22650;49.350;20.898;2023-04-01T07:28:20;11.20;99.90
36654;DHT22;22650;49.350;20.898;2023-04-01T07:31:11;11.60;99.90
36654;DHT22;22650;49.350;20.898;2023-04-01T07:33:55;12.00;99.90
36654;DHT22;22650;49.350;20.898;2023-04-01T07:36:35;12.30;99.90
36654;DHT22;22650;49.350;20.898;2023-04-01T07:39:23;12.60;99.90
36654;DHT22;22650;49.350;20.898;2023-04-01T07:42:26;13.10;99.90
36654;DHT22;22650;49.350;20.898;2023-04-01T07:45:09;13.60;99.90
36654;DHT22;22650;49.350;20.898;2023-04-01T07:47:56;13.90;99.90
36654;DHT22;22650;49.350;20.898;2023-04-01T07:50:38;14.30;99.90
36654;DHT22;22650;49.350;20.898;2023-04-01T07:53:19;14.50;99.90
36654;DHT22;22650;49.350;20.898;2023-04-01T07:56:05;14.90;99.90
36654;DHT22;22650;49.350;20.898;2023-04-01T07:58:55;15.10;99.90
36654;DHT22;22650;49.350;20.898;2023-04-01T08:01:59;15.10;99.90
36654;DHT22;22650;49.350;20.898;2023-04-01T08:04:47;15.10;99.90
36654;DHT22;22650;49.350;20.898;2023-04-01T08:07:27;15.20;99.90
36654;DHT22;22650;49.350;20.898;2023-04-01T08:10:22;15.30;99.90
36654;DHT22;22650;49.350;20.898;2023-04-01T08:13:24;15.60;99.90
36654;DHT22;22650;49.350;20.898;2023-04-01T08:16:30;15.60;99.90
36654;DHT22;22650;49.350;20.898;2023-04-01T08:19:18;15.50;99.90
36654;DHT22;22650;49.350;20.898;2023-04-01T08:22:00;15.40;99.90
36654;DHT22;22650;49.350;20.898;2023-04-01T08:24:41;15.30;99.90
36654;DHT22;22650;49.350;20.898;2023-04-01T08:27:28;15.40;99.60
36654;DHT22;22650;49.350;20.898;2023-04-01T08:30:17;15.60;99.90
36654;DHT22;22650;49.350;20.898;2023-04-01T08:32:54;15.80;99.90
36654;DHT22;22650;49.350;20.898;2023-04-01T08:35:34;15.70;92.70
36654;DHT22;22650;49.350;20.898;2023-04-01T08:38:12;15.50;98.60
36654;DHT22;22650;49.350;20.898;2023-04-01T08:44:42;15.00;97.90
36654;DHT22;22650;49.350;20.898;2023-04-01T08:47:29;14.80;93.30
36654;DHT22;22650;49.350;20.898;2023-04-01T08:50:23;14.80;95.70
36654;DHT22;22650;49.350;20.898;2023-04-01T08:53:14;14.80;95.20
36654;DHT22;22650;49.350;20.898;2023-04-01T08:56:05;15.20;97.50
36654;DHT22;22650;49.350;20.898;2023-04-01T08:59:07;15.40;96.20
36654;DHT22;22650;49.350;20.898;2023-04-01T09:01:54;15.40;90.10
36654;DHT22;22650;49.350;20.898;2023-04-01T09:05:07;15.20;92.40
36654;DHT22;22650;49.350;20.898;2023-04-01T09:07:57;14.90;88.80
36654;DHT22;22650;49.350;20.898;2023-04-01T09:10:54;14.80;90.70
36654;DHT22;22650;49.350;20.898;2023-04-01T09:17:35;15.30;99.90
36654;DHT22;22650;49.350;20.898;2023-04-01T09:20:35;15.70;90.90
36654;DHT22;22650;49.350;20.898;2023-04-01T09:26:44;16.60;87.30
36654;DHT22;22650;49.350;20.898;2023-04-01T09:29:42;17.00;91.80
36654;DHT22;22650;49.350;20.898;2023-04-01T09:32:35;17.40;80.10
36654;DHT22;22650;49.350;20.898;2023-04-01T09:35:33;17.90;83.70
36654;DHT22;22650;49.350;20.898;2023-04-01T09:38:21;18.10;74.70
36654;DHT22;22650;49.350;20.898;2023-04-01T09:40:57;18.40;76.90
36654;DHT22;22650;49.350;20.898;2023-04-01T09:44:02;18.60;74.80
36654;DHT22;22650;49.350;20.898;2023-04-01T09:47:00;19.00;70.10
36654;DHT22;22650;49.350;20.898;2023-04-01T09:49:53;19.20;69.40
36654;DHT22;22650;49.350;20.898;2023-04-01T09:52:38;19.50;73.30
36654;DHT22;22650;49.350;20.898;2023-04-01T09:55:56;19.80;68.90
36654;DHT22;22650;49.350;20.898;2023-04-01T10:02:33;19.90;65.40
36654;DHT22;22650;49.350;20.898;2023-04-01T10:12:02;19.50;64.40
36654;DHT22;22650;49.350;20.898;2023-04-01T10:15:17;19.30;65.10
36654;DHT22;22650;49.350;20.898;2023-04-01T10:18:04;19.10;62.70
36654;DHT22;22650;49.350;20.898;2023-04-01T10:21:07;19.00;64.50
36654;DHT22;22650;49.350;20.898;2023-04-01T10:24:05;18.90;65.00
36654;DHT22;22650;49.350;20.898;2023-04-01T10:36:47;17.70;68.00
36654;DHT22;22650;49.350;20.898;2023-04-01T10:40:02;17.60;65.60
36654;DHT22;22650;49.350;20.898;2023-04-01T10:56:40;18.00;71.30
36654;DHT22;22650;49.350;20.898;2023-04-01T11:03:36;18.10;68.20
36654;DHT22;22650;49.350;20.898;2023-04-01T11:13:50;18.20;65.30
36654;DHT22;22650;49.350;20.898;2023-04-01T11:19:52;18.10;65.50
36654;DHT22;22650;49.350;20.898;2023-04-01T11:23:05;18.00;67.30
36654;DHT22;22650;49.350;20.898;2023-04-01T11:29:43;17.90;68.30
36654;DHT22;22650;49.350;20.898;2023-04-01T11:32:44;17.70;71.10
36654;DHT22;22650;49.350;20.898;2023-04-01T11:35:40;17.70;71.80
36654;DHT22;22650;49.350;20.898;2023-04-01T11:38:33;17.60;71.00
36654;DHT22;22650;49.350;20.898;2023-04-01T11:41:36;17.50;69.80
36654;DHT22;22650;49.350;20.898;2023-04-01T11:44:56;17.40;69.60
36654;DHT22;22650;49.350;20.898;2023-04-01T11:48:07;17.10;67.20
36654;DHT22;22650;49.350;20.898;2023-04-01T11:50:58;16.90;69.60
36654;DHT22;22650;49.350;20.898;2023-04-01T11:53:44;16.80;69.60
36654;DHT22;22650;49.350;20.898;2023-04-01T11:56:38;16.70;71.70
36654;DHT22;22650;49.350;20.898;2023-04-01T12:02:14;16.50;72.80
36654;DHT22;22650;49.350;20.898;2023-04-01T12:05:13;16.50;73.50
36654;DHT22;22650;49.350;20.898;2023-04-01T12:08:05;16.30;70.60
36654;DHT22;22650;49.350;20.898;2023-04-01T12:10:46;16.20;71.60
36654;DHT22;22650;49.350;20.898;2023-04-01T12:13:33;16.00;72.10
36654;DHT22;22650;49.350;20.898;2023-04-01T12:16:17;16.00;74.50
36654;DHT22;22650;49.350;20.898;2023-04-01T12:18:58;15.90;76.20
36654;DHT22;22650;49.350;20.898;2023-04-01T12:21:36;15.90;78.00
36654;DHT22;22650;49.350;20.898;2023-04-01T12:24:46;16.00;78.80
36654;DHT22;22650;49.350;20.898;2023-04-01T12:27:39;16.00;78.00
36654;DHT22;22650;49.350;20.898;2023-04-01T12:30:38;16.10;78.70
36654;DHT22;22650;49.350;20.898;2023-04-01T12:36:49;16.00;75.00
36654;DHT22;22650;49.350;20.898;2023-04-01T12:42:48;16.00;76.00
36654;DHT22;22650;49.350;20.898;2023-04-01T12:45:29;16.10;76.10
36654;DHT22;22650;49.350;20.898;2023-04-01T12:51:42;16.20;74.90
36654;DHT22;22650;49.350;20.898;2023-04-01T12:54:38;16.10;74.20
36654;DHT22;22650;49.350;20.898;2023-04-01T12:57:30;16.20;76.10
36654;DHT22;22650;49.350;20.898;2023-04-01T13:00:18;16.20;76.30
36654;DHT22;22650;49.350;20.898;2023-04-01T13:03:09;16.20;79.00
36654;DHT22;22650;49.350;20.898;2023-04-01T13:06:18;16.10;75.00
36654;DHT22;22650;49.350;20.898;2023-04-01T13:09:04;16.10;72.70
36654;DHT22;22650;49.350;20.898;2023-04-01T13:11:49;16.00;75.10
36654;DHT22;22650;49.350;20.898;2023-04-01T13:14:44;16.10;78.30
36654;DHT22;22650;49.350;20.898;2023-04-01T13:17:25;16.20;78.70
36654;DHT22;22650;49.350;20.898;2023-04-01T13:20:07;16.10;76.40
36654;DHT22;22650;49.350;20.898;2023-04-01T13:22:56;16.10;76.90
36654;DHT22;22650;49.350;20.898;2023-04-01T13:25:38;16.10;77.40
36654;DHT22;22650;49.350;20.898;2023-04-01T13:28:17;16.20;78.90
36654;DHT22;22650;49.350;20.898;2023-04-01T13:30:59;16.20;75.90
36654;DHT22;22650;49.350;20.898;2023-04-01T13:33:40;16.20;78.40
36654;DHT22;22650;49.350;20.898;2023-04-01T13:36:22;16.20;78.70
36654;DHT22;22650;49.350;20.898;2023-04-01T13:39:13;16.20;77.50
36654;DHT22;22650;49.350;20.898;2023-04-01T13:42:02;16.30;78.70
36654;DHT22;22650;49.350;20.898;2023-04-01T13:44:45;16.20;73.40
36654;DHT22;22650;49.350;20.898;2023-04-01T13:50:42;16.10;76.30
36654;DHT22;22650;49.350;20.898;2023-04-01T13:53:53;16.00;76.10
36654;DHT22;22650;49.350;20.898;2023-04-01T13:56:36;15.90;78.40
36654;DHT22;22650;49.350;20.898;2023-04-01T13:59:36;15.90;80.10
36654;DHT22;22650;49.350;20.898;2023-04-01T14:02:28;15.80;82.30
36654;DHT22;22650;49.350;20.898;2023-04-01T14:05:16;15.70;82.90
36654;DHT22;22650;49.350;20.898;2023-04-01T14:08:15;15.80;84.40
36654;DHT22;22650;49.350;20.898;2023-04-01T14:10:56;15.80;86.00
36654;DHT22;22650;49.350;20.898;2023-04-01T14:13:41;16.00;90.10
36654;DHT22;22650;49.350;20.898;2023-04-01T14:19:56;16.30;85.50
36654;DHT22;22650;49.350;20.898;2023-04-01T14:22:39;16.40;85.10
36654;DHT22;22650;49.350;20.898;2023-04-01T14:25:30;16.50;84.70
36654;DHT22;22650;49.350;20.898;2023-04-01T14:28:15;16.40;82.20
36654;DHT22;22650;49.350;20.898;2023-04-01T14:31:15;16.40;81.60
36654;DHT22;22650;49.350;20.898;2023-04-01T14:34:00;16.30;85.40
36654;DHT22;22650;49.350;20.898;2023-04-01T14:36:59;16.20;84.80
36654;DHT22;22650;49.350;20.898;2023-04-01T14:39:48;16.20;86.10
36654;DHT22;22650;49.350;20.898;2023-04-01T14:42:44;16.10;86.10
36654;DHT22;22650;49.350;20.898;2023-04-01T14:48:31;15.80;89.30
36654;DHT22;22650;49.350;20.898;2023-04-01T14:51:15;15.60;91.70
36654;DHT22;22650;49.350;20.898;2023-04-01T14:53:56;15.50;89.40
36654;DHT22;22650;49.350;20.898;2023-04-01T14:56:39;15.40;93.10
36654;DHT22;22650;49.350;20.898;2023-04-01T14:59:17;15.30;94.30
36654;DHT22;22650;49.350;20.898;2023-04-01T15:02:02;15.20;97.50
36654;DHT22;22650;49.350;20.898;2023-04-01T15:04:55;15.00;99.70
36654;DHT22;22650;49.350;20.898;2023-04-01T15:11:03;14.80;99.90
36654;DHT22;22650;49.350;20.898;2023-04-01T15:13:56;14.60;99.90
36654;DHT22;22650;49.350;20.898;2023-04-01T15:16:39;14.50;99.90
36654;DHT22;22650;49.350;20.898;2023-04-01T15:19:20;14.40;99.90
36654;DHT22;22650;49.350;20.898;2023-04-01T15:22:21;14.40;99.90
36654;DHT22;22650;49.350;20.898;2023-04-01T15:25:22;14.40;99.90
36654;DHT22;22650;49.350;20.898;2023-04-01T15:28:06;14.40;99.90
36654;DHT22;22650;49.350;20.898;2023-04-01T15:30:51;14.40;99.90
36654;DHT22;22650;49.350;20.898;2023-04-01T15:33:42;14.40;99.90
36654;DHT22;22650;49.350;20.898;2023-04-01T15:36:29;14.40;99.90
36654;DHT22;22650;49.350;20.898;2023-04-01T15:39:10;14.40;99.90
36654;DHT22;22650;49.350;20.898;2023-04-01T15:41:58;14.30;99.90
36654;DHT22;22650;49.350;20.898;2023-04-01T15:44:51;14.30;99.90
36654;DHT22;22650;49.350;20.898;2023-04-01T15:47:33;14.20;99.90
36654;DHT22;22650;49.350;20.898;2023-04-01T15:50:34;14.20;99.90
36654;DHT22;22650;49.350;20.898;2023-04-01T15:53:24;14.20;99.90
36654;DHT22;22650;49.350;20.898;2023-04-01T15:56:26;14.20;99.90
36654;DHT22;22650;49.350;20.898;2023-04-01T15:59:11;14.10;99.90
36654;DHT22;22650;49.350;20.898;2023-04-01T16:01:54;14.10;99.90
36654;DHT22;22650;49.350;20.898;2023-04-01T16:04:46;14.10;99.90
36654;DHT22;22650;49.350;20.898;2023-04-01T16:07:33;14.00;99.90
36654;DHT22;22650;49.350;20.898;2023-04-01T16:10:22;14.00;99.90
36654;DHT22;22650;49.350;20.898;2023-04-01T16:13:06;14.00;99.90
36654;DHT22;22650;49.350;20.898;2023-04-01T16:15:55;13.80;99.90
36654;DHT22;22650;49.350;20.898;2023-04-01T16:18:44;13.70;99.90
36654;DHT22;22650;49.350;20.898;2023-04-01T16:21:34;13.60;99.90
36654;DHT22;22650;49.350;20.898;2023-04-01T16:24:19;13.50;99.90
36654;DHT22;22650;49.350;20.898;2023-04-01T16:26:57;13.50;99.90
36654;DHT22;22650;49.350;20.898;2023-04-01T16:29:39;13.50;99.90
36654;DHT22;22650;49.350;20.898;2023-04-01T16:32:23;13.40;99.90
36654;DHT22;22650;49.350;20.898;2023-04-01T16:35:25;13.40;99.90
36654;DHT22;22650;49.350;20.898;2023-04-01T16:38:07;13.40;99.90
36654;DHT22;22650;49.350;20.898;2023-04-01T16:40:47;13.30;99.90
36654;DHT22;22650;49.350;20.898;2023-04-01T16:43:25;13.30;99.90
36654;DHT22;22650;49.350;20.898;2023-04-01T16:46:20;13.30;99.90
36654;DHT22;22650;49.350;20.898;2023-04-01T16:49:08;13.20;99.90
36654;DHT22;22650;49.350;20.898;2023-04-01T16:51:54;13.20;99.90
36654;DHT22;22650;49.350;20.898;2023-04-01T16:54:36;13.20;99.90
36654;DHT22;22650;49.350;20.898;2023-04-01T16:57:18;13.20;99.90
36654;DHT22;22650;49.350;20.898;2023-04-01T17:00:00;13.10;99.90
36654;DHT22;22650;49.350;20.898;2023-04-01T17:02:38;13.10;99.90
36654;DHT22;22650;49.350;20.898;2023-04-01T17:05:16;13.10;99.90
36654;DHT22;22650;49.350;20.898;2023-04-01T17:08:01;13.00;99.90
36654;DHT22;22650;49.350;20.898;2023-04-01T17:10:47;13.00;99.90
36654;DHT22;22650;49.350;20.898;2023-04-01T17:13:40;12.80;99.90
36654;DHT22;22650;49.350;20.898;2023-04-01T17:19:26;12.50;99.90
36654;DHT22;22650;49.350;20.898;2023-04-01T17:22:11;12.40;99.90
36654;DHT22;22650;49.350;20.898;2023-04-01T17:25:03;12.40;99.90
36654;DHT22;22650;49.350;20.898;2023-04-01T17:27:44;12.30;99.90
36654;DHT22;22650;49.350;20.898;2023-04-01T17:30:31;12.30;99.90
36654;DHT22;22650;49.350;20.898;2023-04-01T17:33:23;12.20;99.90
36654;DHT22;22650;49.350;20.898;2023-04-01T17:36:00;12.10;99.90
36654;DHT22;22650;49.350;20.898;2023-04-01T17:38:49;12.00;99.90
36654;DHT22;22650;49.350;20.898;2023-04-01T17:41:32;11.90;99.90
36654;DHT22;22650;49.350;20.898;2023-04-01T17:44:24;11.90;99.90
36654;DHT22;22650;49.350;20.898;2023-04-01T17:47:16;11.80;99.90
36654;DHT22;22650;49.350;20.898;2023-04-01T17:50:02;11.80;99.90
36654;DHT22;22650;49.350;20.898;2023-04-01T17:52:45;11.70;99.90
36654;DHT22;22650;49.350;20.898;2023-04-01T17:55:46;11.60;99.90
36654;DHT22;22650;49.350;20.898;2023-04-01T17:58:29;11.40;99.90
36654;DHT22;22650;49.350;20.898;2023-04-01T18:01:10;11.20;99.90
36654;DHT22;22650;49.350;20.898;2023-04-01T18:03:59;11.10;99.90
36654;DHT22;22650;49.350;20.898;2023-04-01T18:06:41;11.00;99.90
36654;DHT22;22650;49.350;20.898;2023-04-01T18:09:26;10.90;99.90
36654;DHT22;22650;49.350;20.898;2023-04-01T18:12:12;10.80;99.90
36654;DHT22;22650;49.350;20.898;2023-04-01T18:15:06;10.80;99.90
36654;DHT22;22650;49.350;20.898;2023-04-01T18:17:55;10.80;99.90
36654;DHT22;22650;49.350;20.898;2023-04-01T18:20:38;10.80;99.90
36654;DHT22;22650;49.350;20.898;2023-04-01T18:23:24;10.80;99.90
36654;DHT22;22650;49.350;20.898;2023-04-01T18:26:04;10.80;99.90
36654;DHT22;22650;49.350;20.898;2023-04-01T18:28:41;10.70;99.90
36654;DHT22;22650;49.350;20.898;2023-04-01T18:31:20;10.70;99.90
36654;DHT22;22650;49.350;20.898;2023-04-01T18:34:01;10.70;99.90
36654;DHT22;22650;49.350;20.898;2023-04-01T18:36:42;10.60;99.90
36654;DHT22;22650;49.350;20.898;2023-04-01T18:39:21;10.50;99.90
36654;DHT22;22650;49.350;20.898;2023-04-01T18:42:03;10.40;99.90
36654;DHT22;22650;49.350;20.898;2023-04-01T18:44:45;10.30;99.90
36654;DHT22;22650;49.350;20.898;2023-04-01T18:47:26;10.20;99.90
36654;DHT22;22650;49.350;20.898;2023-04-01T18:50:13;10.10;99.90
36654;DHT22;22650;49.350;20.898;2023-04-01T18:52:51;10.00;99.90